Time;durP1;ratioP1;P1;durP2;ratioP2;P2;SDS_P1;SDS_P2;PMS_P1;PMS_P2;Temp;Humidity;BMP_temperature;BMP_pressure;BME280_temperature;BME280_humidity;BME280_pressure;Samples;Min_cycle;Max_cycle;Signal;HPM_P1;HPM_P2
2021/06/29 00:00:39;;;;;;;7.12;3.60;;;17.60;99.90;;;;;;1818719;78;21546;-80
2021/06/29 00:03:05;;;;;;;7.55;4.08;;;17.70;99.90;;;;;;1818738;79;21469;-80
2021/06/29 00:05:31;;;;;;;4.70;3.62;;;17.60;99.90;;;;;;1818686;79;21521;-79
2021/06/29 00:07:59;;;;;;;5.10;3.52;;;17.60;99.90;;;;;;1818747;79;21469;-79
2021/06/29 00:10:25;;;;;;;4.65;3.70;;;17.60;99.90;;;;;;1818696;79;21204;-78
2021/06/29 00:12:51;;;;;;;8.73;4.00;;;17.70;99.90;;;;;;1818693;79;21297;-79
2021/06/29 00:15:17;;;;;;;4.92;3.98;;;17.60;99.90;;;;;;1818763;79;21061;-78
2021/06/29 00:17:44;;;;;;;4.40;3.55;;;17.60;99.90;;;;;;1820856;79;21158;-80
2021/06/29 00:20:10;;;;;;;5.25;3.72;;;17.60;99.90;;;;;;1818658;79;21088;-79
2021/06/29 00:22:36;;;;;;;8.13;4.15;;;17.60;99.90;;;;;;1818604;79;21174;-78
2021/06/29 00:25:02;;;;;;;4.30;3.87;;;17.60;99.90;;;;;;1818599;79;21138;-79
2021/06/29 00:27:28;;;;;;;3.83;3.40;;;17.60;99.90;;;;;;1818600;79;21162;-79
2021/06/29 00:29:54;;;;;;;6.90;3.98;;;17.60;99.90;;;;;;1818609;79;21096;-79
2021/06/29 00:32:20;;;;;;;5.35;3.83;;;17.60;99.90;;;;;;1818617;79;21147;-79
2021/06/29 00:34:46;;;;;;;6.33;3.65;;;17.60;99.90;;;;;;1818579;79;21143;-79
2021/06/29 00:37:13;;;;;;;2.62;2.30;;;17.60;99.90;;;;;;1818552;79;21144;-79
2021/06/29 00:39:39;;;;;;;2.05;1.85;;;17.70;99.90;;;;;;1818636;79;21084;-78
2021/06/29 00:42:05;;;;;;;2.27;2.05;;;17.60;99.90;;;;;;1818625;79;21168;-79
2021/06/29 00:44:31;;;;;;;2.62;2.00;;;17.60;99.90;;;;;;1818697;78;21088;-79
2021/06/29 00:46:58;;;;;;;10.58;2.65;;;17.70;99.90;;;;;;1818707;79;21162;-79
2021/06/29 00:49:24;;;;;;;4.37;1.90;;;17.80;99.90;;;;;;1818687;79;21492;-79
2021/06/29 00:51:50;;;;;;;7.25;1.80;;;17.80;99.90;;;;;;1818653;79;21631;-79
2021/06/29 00:54:16;;;;;;;3.72;2.25;;;17.80;99.90;;;;;;1818665;78;21442;-79
2021/06/29 00:56:42;;;;;;;3.60;2.00;;;17.70;99.90;;;;;;1818630;79;21620;-79
2021/06/29 00:59:08;;;;;;;1.82;1.65;;;17.70;99.90;;;;;;1818629;79;21117;-79
2021/06/29 01:01:34;;;;;;;3.45;2.15;;;17.70;99.90;;;;;;1818631;78;21092;-79
2021/06/29 01:04:01;;;;;;;2.12;1.95;;;17.70;99.90;;;;;;1818605;79;21109;-79
2021/06/29 01:06:28;;;;;;;3.08;2.17;;;17.60;99.90;;;;;;1818685;78;21061;-79
2021/06/29 01:08:54;;;;;;;7.12;2.17;;;17.40;99.90;;;;;;1818590;79;21104;-79
2021/06/29 01:11:20;;;;;;;3.02;2.00;;;17.50;99.90;;;;;;1818620;79;21125;-79
2021/06/29 01:13:47;;;;;;;6.45;1.95;;;17.50;99.90;;;;;;1818610;79;21118;-79
2021/06/29 01:16:13;;;;;;;3.08;2.40;;;17.50;99.90;;;;;;1818596;78;21238;-79
2021/06/29 01:18:39;;;;;;;2.87;2.30;;;17.50;99.90;;;;;;1818690;79;21061;-79
2021/06/29 01:21:05;;;;;;;3.12;1.92;;;17.50;99.90;;;;;;1818643;78;21631;-79
2021/06/29 01:23:32;;;;;;;2.70;2.00;;;17.60;99.90;;;;;;1818612;79;21141;-80
2021/06/29 01:25:58;;;;;;;4.00;2.12;;;17.60;99.90;;;;;;1818600;78;21532;-79
2021/06/29 01:28:30;;;;;;;7.40;1.98;;;17.60;99.90;;;;;;1818578;79;21485;-79
2021/06/29 01:31:08;;;;;;;2.20;1.85;;;17.60;99.90;;;;;;1835011;77;21149;-78
2021/06/29 01:33:35;;;;;;;8.08;2.27;;;17.60;99.90;;;;;;1819518;79;21594;-78
2021/06/29 01:36:01;;;;;;;5.58;1.90;;;17.60;99.90;;;;;;1818577;79;21525;-79
2021/06/29 01:38:27;;;;;;;8.20;2.00;;;17.50;99.90;;;;;;1818559;79;21556;-78
2021/06/29 01:40:53;;;;;;;2.40;2.10;;;17.50;99.90;;;;;;1818576;79;21557;-78
2021/06/29 01:43:28;;;;;;;3.60;2.02;;;17.50;99.90;;;;;;1818568;79;21470;-78
2021/06/29 01:45:52;;;;;;;;;;;17.40;99.90;;;;;;1820403;78;21117;-79
2021/06/29 01:48:21;;;;;;;5.20;2.15;;;17.40;99.90;;;;;;1818294;79;20433;-78
2021/06/29 01:50:45;;;;;;;3.65;1.95;;;17.40;99.90;;;;;;1833470;77;21176;-79
2021/06/29 01:53:11;;;;;;;9.38;2.35;;;17.40;99.90;;;;;;1833702;77;21102;-79
2021/06/29 01:55:38;;;;;;;3.62;2.70;;;17.40;99.90;;;;;;1801771;79;21172;-78
2021/06/29 01:58:04;;;;;;;4.58;2.72;;;17.30;99.90;;;;;;1829766;78;21178;-78
2021/06/29 02:00:30;;;;;;;3.22;2.47;;;17.30;99.90;;;;;;1831789;78;21104;-79
2021/06/29 02:02:58;;;;;;;6.03;2.05;;;17.30;99.90;;;;;;1813701;78;21112;-80
2021/06/29 02:05:24;;;;;;;5.40;2.17;;;17.30;99.90;;;;;;1832267;77;21090;-80
2021/06/29 02:07:50;;;;;;;4.35;2.50;;;17.20;99.90;;;;;;1832255;78;21109;-78
2021/06/29 02:10:16;;;;;;;5.12;2.10;;;17.20;99.90;;;;;;1790219;78;21104;-78
2021/06/29 02:12:42;;;;;;;4.62;2.52;;;17.20;99.90;;;;;;1830370;77;21159;-78
2021/06/29 02:15:08;;;;;;;4.40;2.33;;;17.20;99.90;;;;;;1813948;79;21058;-79
2021/06/29 02:17:35;;;;;;;12.13;2.90;;;17.20;99.90;;;;;;1818584;79;21166;-79
2021/06/29 02:20:01;;;;;;;5.70;2.98;;;17.20;99.90;;;;;;1818523;79;21092;-79
2021/06/29 02:22:27;;;;;;;3.52;2.40;;;17.20;99.90;;;;;;1818662;79;21210;-78
2021/06/29 02:24:53;;;;;;;3.15;2.22;;;17.20;99.90;;;;;;1818671;79;21210;-78
2021/06/29 02:27:19;;;;;;;3.20;2.33;;;17.20;99.90;;;;;;1818537;79;21121;-79
2021/06/29 02:29:45;;;;;;;2.22;2.00;;;17.20;99.90;;;;;;1818571;78;21100;-78
2021/06/29 02:32:11;;;;;;;1.90;1.80;;;17.30;99.90;;;;;;1818583;79;21105;-79
2021/06/29 02:34:37;;;;;;;4.62;2.08;;;17.30;99.90;;;;;;1818607;79;21121;-79
2021/06/29 02:37:04;;;;;;;3.02;1.82;;;17.30;99.90;;;;;;1818592;78;21108;-79
2021/06/29 02:39:30;;;;;;;2.20;1.90;;;17.30;99.90;;;;;;1818715;79;21093;-79
2021/06/29 02:41:56;;;;;;;5.20;2.20;;;17.30;99.90;;;;;;1818595;79;21125;-79
2021/06/29 02:44:23;;;;;;;4.40;2.10;;;17.30;99.90;;;;;;1818596;79;21152;-79
2021/06/29 02:46:49;;;;;;;1.95;1.50;;;17.40;99.90;;;;;;1818493;79;21191;-78
2021/06/29 02:49:15;;;;;;;2.20;2.00;;;17.30;99.90;;;;;;1818645;79;21096;-78
2021/06/29 02:51:41;;;;;;;3.98;1.90;;;17.10;99.90;;;;;;1818499;79;21092;-78
2021/06/29 02:54:07;;;;;;;1.82;1.70;;;17.20;99.90;;;;;;1818630;79;21092;-78
2021/06/29 02:56:40;;;;;;;2.37;1.87;;;17.20;99.90;;;;;;1818610;79;21069;-78
2021/06/29 02:59:06;;;;;;;2.75;1.90;;;17.20;99.90;;;;;;1818461;79;21548;-77
2021/06/29 03:01:32;;;;;;;10.05;1.77;;;17.20;99.90;;;;;;1818416;79;21546;-77
2021/06/29 03:03:58;;;;;;;2.00;1.80;;;17.30;99.90;;;;;;1818437;79;21555;-77
2021/06/29 03:06:24;;;;;;;5.12;1.95;;;17.20;99.90;;;;;;1818591;78;21450;-77
2021/06/29 03:08:50;;;;;;;2.08;1.90;;;17.20;99.90;;;;;;1818472;79;21568;-77
2021/06/29 03:11:16;;;;;;;1.77;1.67;;;17.10;99.90;;;;;;1818633;79;21524;-77
2021/06/29 03:13:43;;;;;;;2.37;1.60;;;17.10;99.90;;;;;;1818538;79;21522;-77
2021/06/29 03:16:11;;;;;;;6.20;1.85;;;17.20;99.90;;;;;;1818702;79;21088;-77
2021/06/29 03:18:36;;;;;;;2.22;1.60;;;17.30;99.90;;;;;;1832599;77;21096;-77
2021/06/29 03:21:03;;;;;;;6.00;1.40;;;17.20;99.90;;;;;;1832156;77;21138;-77
2021/06/29 03:23:29;;;;;;;2.10;1.37;;;17.30;99.90;;;;;;1801260;78;21192;-76
2021/06/29 03:25:55;;;;;;;1.60;1.50;;;17.30;99.90;;;;;;1819224;78;21252;-77
2021/06/29 03:28:21;;;;;;;4.40;1.80;;;17.40;99.90;;;;;;1818533;79;21112;-77
2021/06/29 03:30:47;;;;;;;1.70;1.60;;;17.40;99.90;;;;;;1818704;79;21171;-77
2021/06/29 03:33:13;;;;;;;3.47;1.98;;;17.40;99.90;;;;;;1828134;78;21579;-77
2021/06/29 03:35:39;;;;;;;2.55;1.75;;;17.40;99.90;;;;;;1818647;78;21464;-78
2021/06/29 03:38:05;;;;;;;6.17;2.02;;;17.30;99.90;;;;;;1818709;78;21525;-77
2021/06/29 03:40:32;;;;;;;2.02;1.70;;;17.10;99.90;;;;;;1818609;79;21473;-77
2021/06/29 03:42:58;;;;;;;2.27;1.90;;;17.00;99.90;;;;;;1818608;79;21066;-76
2021/06/29 03:45:24;;;;;;;1.98;1.60;;;16.90;99.90;;;;;;1818607;79;21093;-76
2021/06/29 03:47:50;;;;;;;3.50;1.40;;;16.90;99.90;;;;;;1818705;79;21222;-77
2021/06/29 03:50:16;;;;;;;3.83;2.08;;;16.90;99.90;;;;;;1818613;79;21101;-77
2021/06/29 03:52:42;;;;;;;9.45;2.10;;;17.00;99.90;;;;;;1818608;79;21132;-76
2021/06/29 03:55:08;;;;;;;6.25;2.10;;;17.10;99.90;;;;;;1818579;79;21074;-76
2021/06/29 03:57:35;;;;;;;3.25;1.98;;;17.00;99.90;;;;;;1818584;79;21104;-76
2021/06/29 04:00:01;;;;;;;6.87;2.00;;;17.10;99.90;;;;;;1818702;79;21100;-76
2021/06/29 04:02:27;;;;;;;2.72;2.08;;;17.20;99.90;;;;;;1818637;79;21507;-76
2021/06/29 04:04:55;;;;;;;3.55;2.42;;;17.20;99.90;;;;;;1818608;78;21143;-76
2021/06/29 04:07:21;;;;;;;2.98;2.40;;;17.20;99.90;;;;;;1818613;79;21470;-76
2021/06/29 04:09:47;;;;;;;3.40;2.22;;;17.10;99.90;;;;;;1818598;79;21505;-75
2021/06/29 04:12:13;;;;;;;6.25;2.60;;;17.20;99.90;;;;;;1818562;79;21626;-75
2021/06/29 04:14:39;;;;;;;3.20;2.47;;;17.20;99.90;;;;;;1818706;79;21475;-75
2021/06/29 04:17:05;;;;;;;5.75;2.80;;;17.20;99.90;;;;;;1818642;78;21062;-77
2021/06/29 04:19:32;;;;;;;7.45;2.65;;;17.10;99.90;;;;;;1818629;78;21100;-75
2021/06/29 04:21:58;;;;;;;5.70;2.15;;;17.10;99.90;;;;;;1818659;79;21092;-75
2021/06/29 04:24:24;;;;;;;5.10;2.33;;;17.10;99.90;;;;;;1818146;79;21171;-75
2021/06/29 04:26:50;;;;;;;10.65;2.45;;;17.10;99.90;;;;;;1818736;79;21171;-74
2021/06/29 04:29:16;;;;;;;6.97;1.98;;;17.10;99.90;;;;;;1818684;79;21090;-75
2021/06/29 04:31:42;;;;;;;3.45;2.60;;;17.10;99.90;;;;;;1818583;79;21642;-75
2021/06/29 04:34:08;;;;;;;3.02;2.22;;;17.10;99.90;;;;;;1818690;79;21509;-75
2021/06/29 04:36:35;;;;;;;2.45;2.25;;;17.00;99.90;;;;;;1818606;78;21464;-74
2021/06/29 04:39:01;;;;;;;8.53;1.98;;;17.00;99.90;;;;;;1818629;79;21092;-74
2021/06/29 04:41:27;;;;;;;1.98;1.32;;;16.90;99.90;;;;;;1818597;79;21058;-76
2021/06/29 04:43:53;;;;;;;1.10;1.10;;;16.90;99.90;;;;;;1818642;79;21140;-76
2021/06/29 04:46:19;;;;;;;1.35;1.25;;;16.90;99.90;;;;;;1818760;79;21154;-74
2021/06/29 04:48:46;;;;;;;2.60;1.30;;;17.00;99.90;;;;;;1818720;79;21092;-76
2021/06/29 04:51:12;;;;;;;1.42;1.02;;;17.20;99.90;;;;;;1818617;79;21579;-75
2021/06/29 04:53:38;;;;;;;3.92;1.50;;;17.20;99.90;;;;;;1818626;78;21533;-75
2021/06/29 04:56:16;;;;;;;5.03;1.62;;;17.30;99.90;;;;;;1818592;78;21494;-75
2021/06/29 04:58:32;;;;;;;5.70;1.62;;;17.40;99.90;;;;;;1832306;77;21127;-75
2021/06/29 05:00:58;;;;;;;3.58;1.42;;;17.30;99.90;;;;;;1831250;77;21093;-75
2021/06/29 05:03:24;;;;;;;2.10;1.80;;;17.40;99.90;;;;;;1822734;77;21061;-75
2021/06/29 05:05:50;;;;;;;1.95;1.67;;;17.40;99.90;;;;;;1827188;77;21088;-75
2021/06/29 05:08:17;;;;;;;3.77;1.47;;;17.60;99.90;;;;;;1833627;77;21112;-76
2021/06/29 05:10:43;;;;;;;3.08;1.60;;;17.60;99.90;;;;;;1828869;77;21157;-76
2021/06/29 05:13:09;;;;;;;1.70;1.60;;;17.60;99.90;;;;;;1799774;78;21110;-75
2021/06/29 05:15:35;;;;;;;2.58;1.70;;;17.60;99.90;;;;;;1797558;78;21170;-76
2021/06/29 05:18:01;;;;;;;2.55;2.17;;;17.50;99.90;;;;;;1831252;77;21100;-75
2021/06/29 05:20:27;;;;;;;1.90;1.52;;;17.50;99.90;;;;;;1831600;78;21100;-75
2021/06/29 05:22:54;;;;;;;2.20;2.00;;;17.50;99.90;;;;;;1805501;78;21104;-76
2021/06/29 05:25:20;;;;;;;3.98;1.85;;;17.40;99.90;;;;;;1833427;78;21061;-75
2021/06/29 05:27:46;;;;;;;2.65;1.98;;;17.40;99.90;;;;;;1832691;78;21104;-76
2021/06/29 05:30:12;;;;;;;3.92;1.77;;;17.30;99.90;;;;;;1832904;78;21247;-76
2021/06/29 05:32:38;;;;;;;1.77;1.60;;;17.40;99.90;;;;;;1796844;78;21194;-76
2021/06/29 05:35:04;;;;;;;2.50;2.27;;;17.40;99.90;;;;;;1835502;77;21084;-75
2021/06/29 05:37:30;;;;;;;2.95;1.85;;;17.40;99.90;;;;;;1796530;78;21084;-76
2021/06/29 05:39:56;;;;;;;2.87;1.70;;;17.40;99.90;;;;;;1828432;78;21104;-76
2021/06/29 05:42:23;;;;;;;5.05;2.20;;;17.40;99.90;;;;;;1831097;78;21205;-76
2021/06/29 05:44:49;;;;;;;4.55;1.92;;;17.40;99.90;;;;;;1798097;78;21165;-76
2021/06/29 05:47:20;;;;;;;5.67;1.98;;;17.50;99.90;;;;;;1802740;79;21119;-76
2021/06/29 05:49:43;;;;;;;2.42;1.80;;;17.60;99.90;;;;;;1825964;77;21073;-76
2021/06/29 05:52:09;;;;;;;2.75;1.70;;;17.60;99.90;;;;;;1810302;78;21096;-76
2021/06/29 05:54:35;;;;;;;15.58;2.08;;;17.60;99.90;;;;;;1818455;79;21088;-76
2021/06/29 05:57:01;;;;;;;3.33;2.00;;;17.60;99.90;;;;;;1818646;79;21166;-76
2021/06/29 05:59:27;;;;;;;4.33;1.87;;;17.70;99.90;;;;;;1818589;79;21085;-76
2021/06/29 06:01:55;;;;;;;3.55;2.20;;;17.70;99.90;;;;;;1818515;79;21243;-76
2021/06/29 06:04:21;;;;;;;5.37;2.02;;;17.80;99.90;;;;;;1818452;79;21117;-76
2021/06/29 06:06:47;;;;;;;4.55;2.27;;;17.90;99.90;;;;;;1818613;79;21093;-76
2021/06/29 06:09:13;;;;;;;2.77;2.20;;;18.10;99.90;;;;;;1818595;79;21213;-76
2021/06/29 06:11:49;;;;;;;3.50;2.12;;;18.20;99.90;;;;;;1818650;79;21528;-76
2021/06/29 06:14:14;;;;;;;3.60;2.12;;;18.30;99.90;;;;;;1834755;78;21111;-76
2021/06/29 06:16:45;;;;;;;5.62;2.58;;;18.30;99.90;;;;;;1829807;77;21075;-76
2021/06/29 06:19:08;;;;;;;2.92;2.33;;;18.10;99.90;;;;;;1827987;77;21176;-73
2021/06/29 06:21:34;;;;;;;8.20;2.58;;;18.10;99.90;;;;;;1834275;77;21114;-73
2021/06/29 06:24:02;;;;;;;2.72;2.45;;;18.10;99.90;;;;;;1797774;79;21219;-82
2021/06/29 06:26:28;;;;;;;3.17;2.30;;;18.40;99.90;;;;;;1802019;79;21171;-75
2021/06/29 06:28:54;;;;;;;2.95;2.37;;;18.70;99.90;;;;;;1805532;79;21101;-74
2021/06/29 06:31:21;;;;;;;6.03;2.62;;;18.90;99.90;;;;;;1805806;79;21479;-74
2021/06/29 06:33:52;;;;;;;4.25;2.62;;;19.40;99.90;;;;;;1817370;78;21509;-79
2021/06/29 06:36:19;;;;;;;4.08;1.90;;;20.00;99.90;;;;;;1815773;79;21595;-74
2021/06/29 06:38:45;;;;;;;4.35;1.98;;;20.70;99.90;;;;;;1805845;78;21533;-74
2021/06/29 06:41:14;;;;;;;7.25;1.72;;;21.40;99.90;;;;;;1806376;77;21479;-84
2021/06/29 06:43:39;;;;;;;2.98;1.47;;;22.00;99.90;;;;;;1836330;77;21051;-83
2021/06/29 06:46:05;;;;;;;2.12;1.90;;;22.70;99.90;;;;;;1833216;78;21180;-84
2021/06/29 06:48:31;;;;;;;2.87;1.57;;;23.00;99.90;;;;;;1832618;77;21213;-84
2021/06/29 06:50:57;;;;;;;6.85;1.90;;;23.00;99.90;;;;;;1842113;77;21075;-85
2021/06/29 06:53:23;;;;;;;4.75;1.80;;;22.60;99.90;;;;;;1829738;77;21077;-85
2021/06/29 06:55:49;;;;;;;5.42;2.12;;;22.80;99.90;;;;;;1835135;77;21152;-84
2021/06/29 06:58:15;;;;;;;4.45;2.10;;;22.90;99.90;;;;;;1827085;77;21077;-83
2021/06/29 07:00:41;;;;;;;4.40;2.02;;;23.10;99.90;;;;;;1832705;78;21085;-85
2021/06/29 07:03:10;;;;;;;7.72;1.55;;;23.30;99.90;;;;;;1827431;77;21081;-86
2021/06/29 07:05:37;;;;;;;3.08;1.85;;;23.90;99.90;;;;;;1836711;76;21414;-82
2021/06/29 07:08:03;;;;;;;2.10;1.67;;;24.40;99.90;;;;;;1819924;76;21520;-84
2021/06/29 07:10:29;;;;;;;2.45;1.70;;;25.10;99.90;;;;;;1835239;77;21094;-84
2021/06/29 07:12:55;;;;;;;2.83;1.37;;;25.50;99.90;;;;;;1808866;79;21094;-84
2021/06/29 07:15:21;;;;;;;2.02;1.70;;;25.80;99.90;;;;;;1820575;78;21054;-85
2021/06/29 07:17:47;;;;;;;1.70;1.00;;;26.10;99.90;;;;;;1818773;79;21057;-85
2021/06/29 07:20:14;;;;;;;4.20;1.37;;;26.10;99.90;;;;;;1818624;79;21141;-86
2021/06/29 07:22:40;;;;;;;3.42;1.60;;;26.60;99.90;;;;;;1818597;78;21213;-86
2021/06/29 07:25:07;;;;;;;3.30;1.30;;;26.80;99.90;;;;;;1818764;78;21096;-85
2021/06/29 07:27:33;;;;;;;1.87;1.27;;;27.10;99.90;;;;;;1818729;79;21194;-83
2021/06/29 07:29:59;;;;;;;5.08;1.40;;;27.40;99.90;;;;;;1818606;79;21062;-77
2021/06/29 07:32:25;;;;;;;1.80;0.93;;;27.70;99.90;;;;;;1818591;79;21121;-78
2021/06/29 07:34:51;;;;;;;5.05;0.55;;;27.60;99.90;;;;;;1818684;78;21089;-77
2021/06/29 07:37:17;;;;;;;5.95;0.88;;;27.70;99.90;;;;;;1818480;79;21174;-78
2021/06/29 07:39:43;;;;;;;2.05;1.00;;;27.30;99.90;;;;;;1818674;79;21101;-79
2021/06/29 07:42:10;;;;;;;2.58;0.70;;;26.90;99.90;;;;;;1818407;78;21089;-79
2021/06/29 07:44:36;;;;;;;2.05;0.80;;;27.40;99.90;;;;;;1818468;79;21125;-81
2021/06/29 07:47:04;;;;;;;2.05;0.60;;;27.70;99.90;;;;;;1818498;79;21426;-81
2021/06/29 07:49:30;;;;;;;2.25;0.55;;;27.70;99.90;;;;;;1818428;79;21178;-80
2021/06/29 07:51:56;;;;;;;0.90;0.62;;;27.70;99.90;;;;;;1818457;79;21170;-82
2021/06/29 07:54:22;;;;;;;5.20;0.78;;;27.10;99.90;;;;;;1818762;78;21096;-78
2021/06/29 07:56:48;;;;;;;1.35;0.62;;;25.70;99.90;;;;;;1818579;79;21497;-76
2021/06/29 07:59:16;;;;;;;2.37;0.60;;;24.90;99.90;;;;;;1832882;78;21135;-77
2021/06/29 08:01:42;;;;;;;1.35;0.53;;;25.00;99.90;;;;;;1825321;77;21093;-77
2021/06/29 08:04:08;;;;;;;2.58;0.70;;;25.00;99.90;;;;;;1836672;77;21471;-76
2021/06/29 08:06:34;;;;;;;0.80;0.68;;;24.70;99.90;;;;;;1834061;77;21538;-76
2021/06/29 08:09:01;;;;;;;0.75;0.50;;;24.90;99.90;;;;;;1802840;78;21528;-77
2021/06/29 08:11:27;;;;;;;0.90;0.40;;;24.10;99.90;;;;;;1802802;78;21538;-77
2021/06/29 08:13:53;;;;;;;1.22;1.00;;;24.00;99.90;;;;;;1830272;77;21096;-77
2021/06/29 08:16:19;;;;;;;1.50;0.70;;;25.10;99.90;;;;;;1829770;78;21108;-77
2021/06/29 08:18:45;;;;;;;1.77;0.75;;;25.30;99.90;;;;;;1797111;78;21112;-76
2021/06/29 08:21:11;;;;;;;0.60;0.60;;;25.60;99.90;;;;;;1814451;78;21062;-77
2021/06/29 08:23:37;;;;;;;0.57;0.57;;;25.90;99.90;;;;;;1818672;79;21092;-77
2021/06/29 08:26:03;;;;;;;1.52;0.70;;;26.10;99.90;;;;;;1818677;78;21226;-75
2021/06/29 08:28:33;;;;;;;5.60;0.70;;;25.70;99.90;;;;;;1818640;79;21089;-75
2021/06/29 08:30:57;;;;;;;1.00;0.53;;;25.90;99.90;;;;;;1831099;77;21595;-77
2021/06/29 08:33:24;;;;;;;1.20;0.60;;;25.10;99.90;;;;;;1814966;78;21539;-74
2021/06/29 08:35:50;;;;;;;1.17;0.50;;;24.10;99.90;;;;;;1818882;79;21512;-75
2021/06/29 08:38:16;;;;;;;1.82;0.50;;;24.00;99.90;;;;;;1818757;79;21572;-76
2021/06/29 08:40:42;;;;;;;0.78;0.40;;;23.80;99.90;;;;;;1818759;78;21062;-73
2021/06/29 08:43:08;;;;;;;0.93;0.40;;;23.60;99.90;;;;;;1835948;77;21093;-74
2021/06/29 08:45:34;;;;;;;0.78;0.50;;;23.50;99.90;;;;;;1852985;77;21102;-75
2021/06/29 08:48:00;;;;;;;0.50;0.50;;;23.40;99.90;;;;;;1853260;77;21173;-75
2021/06/29 08:50:30;;;;;;;1.82;0.55;;;23.40;99.90;;;;;;1852968;77;21070;-74
2021/06/29 08:52:54;;;;;;;0.65;0.40;;;23.00;99.90;;;;;;1853126;76;21109;-75
2021/06/29 08:55:20;;;;;;;0.80;0.47;;;23.30;99.90;;;;;;1852999;77;21579;-76
2021/06/29 09:00:17;;;;;;;1.87;0.57;;;23.80;99.90;;;;;;1872234;76;21135;-76
2021/06/29 09:02:43;;;;;;;0.80;0.50;;;24.00;99.90;;;;;;1872192;76;21085;-76
2021/06/29 09:05:09;;;;;;;0.88;0.57;;;23.90;99.90;;;;;;1876309;75;21071;-75
2021/06/29 09:07:35;;;;;;;0.40;0.40;;;24.10;99.90;;;;;;1901422;75;21076;-77
2021/06/29 09:10:01;;;;;;;0.40;0.40;;;24.30;99.90;;;;;;1901533;75;21152;-76
2021/06/29 09:12:28;;;;;;;1.57;0.50;;;24.70;99.90;;;;;;1901358;75;21439;-76
2021/06/29 09:14:54;;;;;;;0.53;0.40;;;24.60;99.90;;;;;;1901202;75;21474;-77
2021/06/29 09:17:21;;;;;;;0.60;0.35;;;24.80;99.90;;;;;;1901437;75;21189;-76
2021/06/29 09:19:47;;;;;;;13.10;0.68;;;24.70;99.90;;;;;;1900715;75;21079;-77
2021/06/29 09:22:13;;;;;;;0.60;0.42;;;24.60;99.90;;;;;;1901555;75;21071;-77
2021/06/29 09:24:39;;;;;;;0.68;0.50;;;25.20;99.90;;;;;;1901466;75;21044;-76
2021/06/29 09:27:07;;;;;;;2.47;0.55;;;25.40;99.90;;;;;;1901459;75;21082;-76
2021/06/29 09:29:34;;;;;;;0.68;0.60;;;25.30;99.90;;;;;;1901230;75;21079;-77
2021/06/29 09:32:03;;;;;;;0.75;0.70;;;25.60;99.90;;;;;;1901568;75;21364;-78
2021/06/29 09:34:29;;;;;;;1.25;0.42;;;25.60;99.90;;;;;;1901728;75;21068;-79
2021/06/29 09:36:55;;;;;;;0.50;0.50;;;25.70;99.90;;;;;;1901544;75;21072;-79
2021/06/29 09:39:22;;;;;;;0.60;0.60;;;25.60;99.90;;;;;;1901479;75;21075;-79
2021/06/29 09:41:48;;;;;;;3.85;1.37;;;25.70;99.90;;;;;;1901347;75;21042;-79
2021/06/29 09:44:18;;;;;;;1.25;0.65;;;25.60;99.90;;;;;;1876614;75;21490;-79
2021/06/29 09:46:42;;;;;;;2.05;0.85;;;26.30;99.90;;;;;;1901008;75;21178;-79
2021/06/29 09:49:11;;;;;;;0.55;0.55;;;26.60;99.90;;;;;;1901201;75;21568;-79
2021/06/29 09:51:36;;;;;;;0.57;0.57;;;26.50;99.90;;;;;;1901214;74;21108;-78
2021/06/29 09:54:02;;;;;;;3.10;0.60;;;26.00;99.90;;;;;;1901182;75;21078;-78
2021/06/29 09:56:32;;;;;;;0.57;0.53;;;25.70;99.90;;;;;;1901393;75;21067;-80
2021/06/29 09:58:56;;;;;;;1.12;0.68;;;26.30;99.90;;;;;;1901011;74;21075;-80
2021/06/29 10:01:25;;;;;;;3.87;0.40;;;26.30;99.90;;;;;;1901333;75;21067;-80
2021/06/29 10:03:53;;;;;;;2.08;0.50;;;26.10;99.90;;;;;;1900990;74;21146;-79
2021/06/29 10:06:19;;;;;;;0.67;0.60;;;26.10;99.90;;;;;;1902981;75;21075;-80
2021/06/29 10:08:45;;;;;;;1.47;0.55;;;25.40;99.90;;;;;;1901253;75;21138;-80
2021/06/29 10:11:12;;;;;;;0.60;0.55;;;26.00;99.90;;;;;;1901295;75;21072;-79
2021/06/29 10:13:38;;;;;;;0.70;0.47;;;26.30;99.90;;;;;;1901306;75;21519;-79
2021/06/29 10:16:05;;;;;;;0.42;0.40;;;27.00;99.90;;;;;;1903601;75;21075;-80
2021/06/29 10:18:33;;;;;;;1.62;0.93;;;25.90;99.90;;;;;;1902581;75;21107;-80
2021/06/29 10:21:02;;;;;;;2.05;0.68;;;25.70;99.90;;;;;;1901414;75;21085;-79
2021/06/29 10:23:29;;;;;;;0.50;0.50;;;25.40;99.90;;;;;;1900939;75;21479;-78
2021/06/29 10:25:55;;;;;;;1.72;0.57;;;25.90;99.90;;;;;;1901365;74;21194;-79
2021/06/29 10:28:21;;;;;;;1.10;0.75;;;25.90;99.90;;;;;;1901304;75;21123;-80
2021/06/29 10:30:47;;;;;;;1.20;0.50;;;25.70;99.90;;;;;;1901241;75;21079;-80
2021/06/29 10:33:13;;;;;;;3.25;0.60;;;25.70;99.90;;;;;;1901296;75;21218;-80
2021/06/29 10:35:39;;;;;;;0.50;0.50;;;26.10;99.90;;;;;;1901233;75;21255;-79
2021/06/29 10:38:05;;;;;;;1.90;0.70;;;26.10;99.90;;;;;;1901355;75;21040;-80
2021/06/29 10:40:32;;;;;;;0.57;0.47;;;26.10;99.90;;;;;;1901331;75;21040;-79
2021/06/29 10:43:00;;;;;;;0.53;0.42;;;26.20;99.90;;;;;;1901440;75;21161;-80
2021/06/29 10:48:09;;;;;;;0.88;0.60;;;25.90;99.90;;;;;;1899026;75;21056;-78
2021/06/29 10:50:36;;;;;;;0.60;0.42;;;26.20;99.90;;;;;;1902491;75;21454;-78
2021/06/29 10:53:02;;;;;;;1.52;0.55;;;26.20;99.90;;;;;;1901432;75;21067;-79
2021/06/29 10:55:28;;;;;;;0.50;0.50;;;26.10;99.90;;;;;;1901469;75;21143;-78
2021/06/29 10:57:54;;;;;;;0.50;0.50;;;26.20;99.90;;;;;;1901582;75;21032;-78
2021/06/29 11:00:21;;;;;;;0.50;0.30;;;26.50;99.90;;;;;;1901187;75;21631;-79
2021/06/29 11:02:47;;;;;;;0.60;0.60;;;26.80;99.90;;;;;;1901367;75;21075;-78
2021/06/29 11:05:13;;;;;;;0.57;0.57;;;27.10;99.90;;;;;;1901546;75;21064;-79
2021/06/29 11:07:40;;;;;;;0.88;0.40;;;26.80;99.90;;;;;;1901582;75;21137;-79
2021/06/29 11:10:06;;;;;;;1.65;0.50;;;26.60;99.90;;;;;;1901357;75;21075;-79
2021/06/29 11:12:32;;;;;;;0.60;0.60;;;27.10;99.90;;;;;;1901455;75;21080;-77
2021/06/29 11:14:58;;;;;;;2.85;0.65;;;27.00;99.90;;;;;;1901172;75;21129;-75
2021/06/29 11:17:26;;;;;;;1.70;0.80;;;27.00;99.90;;;;;;1901289;75;21037;-75
2021/06/29 11:19:52;;;;;;;2.05;0.53;;;27.10;99.90;;;;;;1901361;75;21079;-76
2021/06/29 11:22:18;;;;;;;0.85;0.60;;;27.10;99.90;;;;;;1901132;75;21075;-76
2021/06/29 11:24:44;;;;;;;1.80;0.47;;;27.60;99.90;;;;;;1901341;75;21063;-77
2021/06/29 11:27:10;;;;;;;1.55;0.40;;;27.20;99.90;;;;;;1901088;75;21071;-77
2021/06/29 11:29:36;;;;;;;3.60;0.65;;;27.50;99.90;;;;;;1901061;75;21075;-77
2021/06/29 11:32:03;;;;;;;2.02;0.88;;;27.70;99.90;;;;;;1901191;75;21068;-77
2021/06/29 11:34:29;;;;;;;1.40;0.50;;;27.80;99.90;;;;;;1901327;75;21156;-78
2021/06/29 11:36:55;;;;;;;1.70;0.65;;;27.30;99.90;;;;;;1901169;75;21170;-78
2021/06/29 11:39:21;;;;;;;1.90;1.20;;;27.10;99.90;;;;;;1901279;75;21555;-77
2021/06/29 11:41:48;;;;;;;1.27;0.62;;;27.50;99.90;;;;;;1901273;75;21083;-77
2021/06/29 11:44:14;;;;;;;0.80;0.72;;;27.60;99.90;;;;;;1901254;75;21079;-77
2021/06/29 11:46:40;;;;;;;1.32;0.50;;;27.00;99.90;;;;;;1901196;75;21071;-77
2021/06/29 11:49:06;;;;;;;0.50;0.50;;;27.10;99.90;;;;;;1901280;75;21091;-78
2021/06/29 11:51:32;;;;;;;1.35;0.65;;;26.90;99.90;;;;;;1901307;75;21041;-77
2021/06/29 11:53:59;;;;;;;0.82;0.60;;;27.40;99.90;;;;;;1901422;75;21079;-77
2021/06/29 11:56:25;;;;;;;0.50;0.50;;;28.00;99.90;;;;;;1901290;75;21129;-78
2021/06/29 11:58:51;;;;;;;1.47;0.60;;;28.20;99.90;;;;;;1901404;75;21600;-75
2021/06/29 12:01:18;;;;;;;3.05;0.60;;;27.90;99.90;;;;;;1901249;75;21523;-77
2021/06/29 12:03:44;;;;;;;3.75;0.70;;;27.90;99.90;;;;;;1902803;75;21153;-75
2021/06/29 12:06:10;;;;;;;1.95;0.70;;;28.20;99.90;;;;;;1901578;75;21476;-77
2021/06/29 12:08:37;;;;;;;1.95;0.90;;;28.30;99.90;;;;;;1901346;75;21494;-77
2021/06/29 12:11:03;;;;;;;1.25;0.85;;;28.60;99.90;;;;;;1901346;75;21067;-75
2021/06/29 12:13:29;;;;;;;1.25;0.50;;;28.20;99.90;;;;;;1901343;75;21055;-78
2021/06/29 12:15:56;;;;;;;5.00;0.78;;;28.50;99.90;;;;;;1901288;75;21083;-76
2021/06/29 12:18:22;;;;;;;0.82;0.60;;;28.90;99.90;;;;;;1901437;75;21130;-77
2021/06/29 12:20:48;;;;;;;3.50;0.70;;;28.70;99.90;;;;;;1901896;75;21404;-76
2021/06/29 12:23:14;;;;;;;0.88;0.60;;;27.70;99.90;;;;;;1901484;75;21044;-76
2021/06/29 12:25:40;;;;;;;0.40;0.40;;;27.40;99.90;;;;;;1901751;75;21060;-76
2021/06/29 12:28:06;;;;;;;4.58;0.60;;;27.40;99.90;;;;;;1901690;75;21063;-75
2021/06/29 12:30:37;;;;;;;2.02;0.80;;;27.20;99.90;;;;;;1902041;75;21051;-76
2021/06/29 12:33:00;;;;;;;3.50;0.70;;;27.00;99.90;;;;;;1901329;75;21100;-76
2021/06/29 12:35:29;;;;;;;1.35;0.68;;;27.10;99.90;;;;;;1901650;75;21071;-75
2021/06/29 12:37:55;;;;;;;1.10;0.80;;;26.70;99.90;;;;;;1903201;75;21589;-78
2021/06/29 12:40:23;;;;;;;1.17;0.80;;;26.50;99.90;;;;;;1901699;75;21525;-79
2021/06/29 12:42:49;;;;;;;0.78;0.60;;;26.20;99.90;;;;;;1901849;74;21104;-75
2021/06/29 12:45:15;;;;;;;2.33;0.93;;;26.70;99.90;;;;;;1901984;75;21040;-81
2021/06/29 12:47:51;;;;;;;0.80;0.80;;;27.00;99.90;;;;;;1877296;75;21558;-80